sensor_id;sensor_type;location;lat;lon;timestamp;temperature;humidity
10388;DHT22;5240;51.128;4.566;2023-11-22T00:01:02;5.70;99.90
10388;DHT22;5240;51.128;4.566;2023-11-22T00:03:31;5.70;99.90
10388;DHT22;5240;51.128;4.566;2023-11-22T00:05:58;5.70;99.90
10388;DHT22;5240;51.128;4.566;2023-11-22T00:08:27;5.70;99.90
10388;DHT22;5240;51.128;4.566;2023-11-22T00:10:55;5.60;99.90
10388;DHT22;5240;51.128;4.566;2023-11-22T00:13:22;5.60;99.90
10388;DHT22;5240;51.128;4.566;2023-11-22T00:15:49;5.60;99.90
10388;DHT22;5240;51.128;4.566;2023-11-22T00:18:16;5.50;99.90
10388;DHT22;5240;51.128;4.566;2023-11-22T00:20:45;5.50;99.90
10388;DHT22;5240;51.128;4.566;2023-11-22T01:00:10;5.60;99.90
10388;DHT22;5240;51.128;4.566;2023-11-22T01:02:38;5.20;99.90
10388;DHT22;5240;51.128;4.566;2023-11-22T18:09:44;5.10;99.90
10388;DHT22;5240;51.128;4.566;2023-11-22T18:12:11;7.10;99.90
10388;DHT22;5240;51.128;4.566;2023-11-22T18:14:38;7.10;99.90
10388;DHT22;5240;51.128;4.566;2023-11-22T18:17:05;7.10;99.90
10388;DHT22;5240;51.128;4.566;2023-11-22T18:19:32;7.10;99.90
10388;DHT22;5240;51.128;4.566;2023-11-22T18:21:59;7.10;99.90
10388;DHT22;5240;51.128;4.566;2023-11-22T18:24:26;7.00;99.90
10388;DHT22;5240;51.128;4.566;2023-11-22T18:26:56;7.00;99.90
10388;DHT22;5240;51.128;4.566;2023-11-22T18:29:23;7.00;99.90
10388;DHT22;5240;51.128;4.566;2023-11-22T18:31:52;6.90;99.90
10388;DHT22;5240;51.128;4.566;2023-11-22T18:34:20;6.90;99.90
10388;DHT22;5240;51.128;4.566;2023-11-22T18:36:48;6.90;99.90
10388;DHT22;5240;51.128;4.566;2023-11-22T18:39:15;6.90;99.90
10388;DHT22;5240;51.128;4.566;2023-11-22T18:41:42;6.90;99.90
10388;DHT22;5240;51.128;4.566;2023-11-22T18:44:10;6.90;99.90
10388;DHT22;5240;51.128;4.566;2023-11-22T18:46:37;6.80;99.90
10388;DHT22;5240;51.128;4.566;2023-11-22T18:49:05;6.80;99.90
10388;DHT22;5240;51.128;4.566;2023-11-22T18:51:33;6.70;99.90
10388;DHT22;5240;51.128;4.566;2023-11-22T18:54:02;6.70;99.90
10388;DHT22;5240;51.128;4.566;2023-11-22T18:56:29;6.70;99.90
10388;DHT22;5240;51.128;4.566;2023-11-22T18:58:56;6.70;99.90
10388;DHT22;5240;51.128;4.566;2023-11-22T19:01:24;6.70;99.90
10388;DHT22;5240;51.128;4.566;2023-11-22T19:03:51;6.70;99.90
10388;DHT22;5240;51.128;4.566;2023-11-22T19:06:18;6.70;99.90
10388;DHT22;5240;51.128;4.566;2023-11-22T19:08:46;6.70;99.90
10388;DHT22;5240;51.128;4.566;2023-11-22T19:11:13;6.70;99.90
10388;DHT22;5240;51.128;4.566;2023-11-22T19:13:40;6.70;99.90
10388;DHT22;5240;51.128;4.566;2023-11-22T19:16:08;6.70;99.90
10388;DHT22;5240;51.128;4.566;2023-11-22T19:18:37;6.70;99.90
10388;DHT22;5240;51.128;4.566;2023-11-22T19:21:04;6.70;99.90
10388;DHT22;5240;51.128;4.566;2023-11-22T19:23:32;6.70;99.90
10388;DHT22;5240;51.128;4.566;2023-11-22T19:25:59;6.70;99.90
10388;DHT22;5240;51.128;4.566;2023-11-22T19:28:26;6.60;99.90
10388;DHT22;5240;51.128;4.566;2023-11-22T19:30:53;6.60;99.90
10388;DHT22;5240;51.128;4.566;2023-11-22T19:33:20;6.60;99.90
10388;DHT22;5240;51.128;4.566;2023-11-22T19:35:49;6.60;99.90
10388;DHT22;5240;51.128;4.566;2023-11-22T19:38:16;6.50;99.90
10388;DHT22;5240;51.128;4.566;2023-11-22T19:40:46;6.50;99.90
10388;DHT22;5240;51.128;4.566;2023-11-22T19:43:13;6.50;99.90
10388;DHT22;5240;51.128;4.566;2023-11-22T19:45:40;6.50;99.90
10388;DHT22;5240;51.128;4.566;2023-11-22T19:48:07;6.50;99.90
10388;DHT22;5240;51.128;4.566;2023-11-22T19:50:35;6.50;99.90
10388;DHT22;5240;51.128;4.566;2023-11-22T19:53:03;6.50;99.90
10388;DHT22;5240;51.128;4.566;2023-11-22T19:55:30;6.50;99.90
10388;DHT22;5240;51.128;4.566;2023-11-22T19:57:57;6.50;99.90
10388;DHT22;5240;51.128;4.566;2023-11-22T20:00:24;6.50;99.90
10388;DHT22;5240;51.128;4.566;2023-11-22T20:02:52;6.50;99.90
10388;DHT22;5240;51.128;4.566;2023-11-22T20:05:19;6.40;99.90
10388;DHT22;5240;51.128;4.566;2023-11-22T20:07:46;6.40;99.90
10388;DHT22;5240;51.128;4.566;2023-11-22T20:10:15;6.40;99.90
10388;DHT22;5240;51.128;4.566;2023-11-22T20:12:44;6.40;99.90
10388;DHT22;5240;51.128;4.566;2023-11-22T20:15:11;6.40;99.90
10388;DHT22;5240;51.128;4.566;2023-11-22T20:17:38;6.40;99.90
10388;DHT22;5240;51.128;4.566;2023-11-22T20:20:06;6.40;99.90
10388;DHT22;5240;51.128;4.566;2023-11-22T20:22:34;6.30;99.90
10388;DHT22;5240;51.128;4.566;2023-11-22T20:25:01;6.40;99.90
10388;DHT22;5240;51.128;4.566;2023-11-22T20:27:30;6.40;99.90
10388;DHT22;5240;51.128;4.566;2023-11-22T20:29:57;6.50;99.90
10388;DHT22;5240;51.128;4.566;2023-11-22T20:32:24;6.50;99.90
10388;DHT22;5240;51.128;4.566;2023-11-22T20:34:51;6.50;99.90
10388;DHT22;5240;51.128;4.566;2023-11-22T20:37:18;6.50;99.90
10388;DHT22;5240;51.128;4.566;2023-11-22T20:39:45;6.50;99.90
10388;DHT22;5240;51.128;4.566;2023-11-22T20:42:12;6.50;99.90
10388;DHT22;5240;51.128;4.566;2023-11-22T20:44:41;6.40;99.90
10388;DHT22;5240;51.128;4.566;2023-11-22T20:47:08;6.40;99.90
10388;DHT22;5240;51.128;4.566;2023-11-22T20:49:35;6.40;99.90
10388;DHT22;5240;51.128;4.566;2023-11-22T20:52:03;6.30;99.90
10388;DHT22;5240;51.128;4.566;2023-11-22T20:54:30;6.30;99.90
10388;DHT22;5240;51.128;4.566;2023-11-22T20:57:00;6.30;99.90
10388;DHT22;5240;51.128;4.566;2023-11-22T20:59:27;6.40;99.90
10388;DHT22;5240;51.128;4.566;2023-11-22T21:01:56;6.40;99.90
10388;DHT22;5240;51.128;4.566;2023-11-22T21:04:23;6.40;99.90
10388;DHT22;5240;51.128;4.566;2023-11-22T21:06:50;6.40;99.90
10388;DHT22;5240;51.128;4.566;2023-11-22T21:09:17;6.40;99.90
10388;DHT22;5240;51.128;4.566;2023-11-22T21:11:44;6.40;99.90
10388;DHT22;5240;51.128;4.566;2023-11-22T21:14:11;6.40;99.90
10388;DHT22;5240;51.128;4.566;2023-11-22T21:16:39;6.40;99.90
10388;DHT22;5240;51.128;4.566;2023-11-22T21:19:08;6.40;99.90
10388;DHT22;5240;51.128;4.566;2023-11-22T21:21:37;6.50;99.90
10388;DHT22;5240;51.128;4.566;2023-11-22T21:24:04;6.60;99.90
10388;DHT22;5240;51.128;4.566;2023-11-22T21:26:31;6.70;99.90
10388;DHT22;5240;51.128;4.566;2023-11-22T21:29:01;6.80;99.90
10388;DHT22;5240;51.128;4.566;2023-11-22T21:31:29;6.80;99.90
10388;DHT22;5240;51.128;4.566;2023-11-22T21:33:57;6.90;99.90
10388;DHT22;5240;51.128;4.566;2023-11-22T21:36:25;6.90;99.90
10388;DHT22;5240;51.128;4.566;2023-11-22T21:38:52;7.00;99.90
10388;DHT22;5240;51.128;4.566;2023-11-22T21:41:19;7.00;99.90
10388;DHT22;5240;51.128;4.566;2023-11-22T21:43:46;7.10;99.90
10388;DHT22;5240;51.128;4.566;2023-11-22T21:46:17;7.10;99.90
10388;DHT22;5240;51.128;4.566;2023-11-22T21:48:44;7.10;99.90
10388;DHT22;5240;51.128;4.566;2023-11-22T21:51:11;7.20;99.90
10388;DHT22;5240;51.128;4.566;2023-11-22T21:53:40;7.20;99.90
10388;DHT22;5240;51.128;4.566;2023-11-22T21:56:08;7.30;99.90
10388;DHT22;5240;51.128;4.566;2023-11-22T21:58:35;7.30;99.90
10388;DHT22;5240;51.128;4.566;2023-11-22T22:01:02;7.40;99.90
10388;DHT22;5240;51.128;4.566;2023-11-22T22:03:29;7.40;99.90
10388;DHT22;5240;51.128;4.566;2023-11-22T22:05:56;7.50;99.90
10388;DHT22;5240;51.128;4.566;2023-11-22T22:08:23;7.50;99.90
10388;DHT22;5240;51.128;4.566;2023-11-22T22:10:52;7.50;99.90
10388;DHT22;5240;51.128;4.566;2023-11-22T22:13:19;7.50;99.90
10388;DHT22;5240;51.128;4.566;2023-11-22T22:15:46;7.60;99.90
10388;DHT22;5240;51.128;4.566;2023-11-22T22:18:13;7.60;99.90
10388;DHT22;5240;51.128;4.566;2023-11-22T22:20:41;7.70;99.90
10388;DHT22;5240;51.128;4.566;2023-11-22T22:23:09;7.70;99.90
10388;DHT22;5240;51.128;4.566;2023-11-22T22:25:36;7.70;99.90
10388;DHT22;5240;51.128;4.566;2023-11-22T22:28:04;7.70;99.90
10388;DHT22;5240;51.128;4.566;2023-11-22T22:30:31;7.70;99.90
10388;DHT22;5240;51.128;4.566;2023-11-22T22:32:59;7.70;99.90
10388;DHT22;5240;51.128;4.566;2023-11-22T22:35:26;7.70;99.90
10388;DHT22;5240;51.128;4.566;2023-11-22T22:37:53;7.80;99.90
10388;DHT22;5240;51.128;4.566;2023-11-22T22:40:20;7.80;99.90
10388;DHT22;5240;51.128;4.566;2023-11-22T22:42:47;7.80;99.90
10388;DHT22;5240;51.128;4.566;2023-11-22T22:45:16;7.80;99.90
10388;DHT22;5240;51.128;4.566;2023-11-22T22:47:43;7.80;99.90
10388;DHT22;5240;51.128;4.566;2023-11-22T22:50:10;7.80;99.90
10388;DHT22;5240;51.128;4.566;2023-11-22T22:52:37;7.80;99.90
10388;DHT22;5240;51.128;4.566;2023-11-22T22:55:07;7.90;99.90
10388;DHT22;5240;51.128;4.566;2023-11-22T22:57:36;7.80;99.90
10388;DHT22;5240;51.128;4.566;2023-11-22T23:00:05;7.90;99.90
10388;DHT22;5240;51.128;4.566;2023-11-22T23:02:36;7.90;99.90
10388;DHT22;5240;51.128;4.566;2023-11-22T23:05:04;7.90;99.90
10388;DHT22;5240;51.128;4.566;2023-11-22T23:07:31;7.90;99.90
10388;DHT22;5240;51.128;4.566;2023-11-22T23:09:59;7.90;99.90
10388;DHT22;5240;51.128;4.566;2023-11-22T23:12:26;7.90;99.90
10388;DHT22;5240;51.128;4.566;2023-11-22T23:14:53;8.00;99.90
10388;DHT22;5240;51.128;4.566;2023-11-22T23:17:20;8.00;99.90
10388;DHT22;5240;51.128;4.566;2023-11-22T23:19:48;8.00;99.90
10388;DHT22;5240;51.128;4.566;2023-11-22T23:22:16;8.00;99.90
10388;DHT22;5240;51.128;4.566;2023-11-22T23:24:43;8.00;99.90
10388;DHT22;5240;51.128;4.566;2023-11-22T23:27:10;8.00;99.90
10388;DHT22;5240;51.128;4.566;2023-11-22T23:29:37;8.00;99.90
10388;DHT22;5240;51.128;4.566;2023-11-22T23:32:05;8.00;99.90
10388;DHT22;5240;51.128;4.566;2023-11-22T23:34:35;8.00;99.90
10388;DHT22;5240;51.128;4.566;2023-11-22T23:37:05;8.00;99.90
10388;DHT22;5240;51.128;4.566;2023-11-22T23:39:32;8.00;99.90
10388;DHT22;5240;51.128;4.566;2023-11-22T23:42:00;8.00;99.90
10388;DHT22;5240;51.128;4.566;2023-11-22T23:44:28;8.00;99.90
10388;DHT22;5240;51.128;4.566;2023-11-22T23:46:55;8.00;99.90
10388;DHT22;5240;51.128;4.566;2023-11-22T23:49:23;8.10;99.90
10388;DHT22;5240;51.128;4.566;2023-11-22T23:51:50;8.00;99.90
10388;DHT22;5240;51.128;4.566;2023-11-22T23:54:18;8.00;99.90
10388;DHT22;5240;51.128;4.566;2023-11-22T23:56:45;8.10;99.90
10388;DHT22;5240;51.128;4.566;2023-11-22T23:59:12;8.10;99.90
